sensor_id;sensor_type;location;lat;lon;timestamp;P1;durP1;ratioP1;P2;durP2;ratioP2
62687;SDS011;48752;51.056;17.056;2023-08-01T00:00:31;4.82;;;2.40;;
62687;SDS011;48752;51.056;17.056;2023-08-01T00:03:01;4.68;;;2.60;;
62687;SDS011;48752;51.056;17.056;2023-08-01T00:05:29;6.30;;;2.45;;
62687;SDS011;48752;51.056;17.056;2023-08-01T00:07:58;4.50;;;2.30;;
62687;SDS011;48752;51.056;17.056;2023-08-01T00:10:24;4.60;;;2.28;;
62687;SDS011;48752;51.056;17.056;2023-08-01T00:12:49;4.93;;;2.42;;
62687;SDS011;48752;51.056;17.056;2023-08-01T00:15:15;2.47;;;1.80;;
62687;SDS011;48752;51.056;17.056;2023-08-01T00:17:40;4.53;;;2.13;;
62687;SDS011;48752;51.056;17.056;2023-08-01T00:20:07;3.03;;;2.40;;
62687;SDS011;48752;51.056;17.056;2023-08-01T00:22:33;4.38;;;2.08;;
62687;SDS011;48752;51.056;17.056;2023-08-01T00:25:00;3.03;;;2.22;;
62687;SDS011;48752;51.056;17.056;2023-08-01T00:27:25;2.97;;;2.08;;
62687;SDS011;48752;51.056;17.056;2023-08-01T00:29:52;4.00;;;1.90;;
62687;SDS011;48752;51.056;17.056;2023-08-01T00:32:18;1.85;;;1.65;;
62687;SDS011;48752;51.056;17.056;2023-08-01T00:34:44;3.55;;;2.03;;
62687;SDS011;48752;51.056;17.056;2023-08-01T00:37:10;5.05;;;2.45;;
62687;SDS011;48752;51.056;17.056;2023-08-01T00:39:44;4.45;;;2.20;;
62687;SDS011;48752;51.056;17.056;2023-08-01T00:42:11;3.72;;;2.15;;
62687;SDS011;48752;51.056;17.056;2023-08-01T00:44:38;4.78;;;2.17;;
62687;SDS011;48752;51.056;17.056;2023-08-01T00:47:06;3.92;;;2.38;;
62687;SDS011;48752;51.056;17.056;2023-08-01T00:49:33;6.00;;;2.53;;
62687;SDS011;48752;51.056;17.056;2023-08-01T00:51:58;3.58;;;2.10;;
62687;SDS011;48752;51.056;17.056;2023-08-01T00:54:24;3.17;;;1.98;;
62687;SDS011;48752;51.056;17.056;2023-08-01T00:56:51;4.25;;;2.30;;
62687;SDS011;48752;51.056;17.056;2023-08-01T00:59:17;5.88;;;2.53;;
62687;SDS011;48752;51.056;17.056;2023-08-01T01:01:42;5.93;;;2.97;;
62687;SDS011;48752;51.056;17.056;2023-08-01T01:04:09;5.03;;;2.25;;
62687;SDS011;48752;51.056;17.056;2023-08-01T01:07:18;4.32;;;2.08;;
62687;SDS011;48752;51.056;17.056;2023-08-01T01:09:30;8.65;;;2.35;;
62687;SDS011;48752;51.056;17.056;2023-08-01T01:12:00;5.90;;;2.53;;
62687;SDS011;48752;51.056;17.056;2023-08-01T01:14:30;4.15;;;1.98;;
62687;SDS011;48752;51.056;17.056;2023-08-01T01:16:56;3.38;;;2.10;;
62687;SDS011;48752;51.056;17.056;2023-08-01T01:19:23;3.67;;;2.10;;
62687;SDS011;48752;51.056;17.056;2023-08-01T01:21:56;4.75;;;2.33;;
62687;SDS011;48752;51.056;17.056;2023-08-01T01:24:22;2.08;;;1.88;;
62687;SDS011;48752;51.056;17.056;2023-08-01T01:26:48;4.70;;;2.17;;
62687;SDS011;48752;51.056;17.056;2023-08-01T01:29:14;5.38;;;1.95;;
62687;SDS011;48752;51.056;17.056;2023-08-01T01:31:42;5.13;;;2.33;;
62687;SDS011;48752;51.056;17.056;2023-08-01T01:34:17;4.53;;;2.05;;
62687;SDS011;48752;51.056;17.056;2023-08-01T01:36:43;3.20;;;2.10;;
62687;SDS011;48752;51.056;17.056;2023-08-01T01:39:08;3.88;;;2.10;;
62687;SDS011;48752;51.056;17.056;2023-08-01T01:41:34;4.13;;;2.03;;
62687;SDS011;48752;51.056;17.056;2023-08-01T01:43:59;4.28;;;1.95;;
62687;SDS011;48752;51.056;17.056;2023-08-01T01:46:26;3.78;;;2.00;;
62687;SDS011;48752;51.056;17.056;2023-08-01T01:48:52;4.43;;;2.22;;
62687;SDS011;48752;51.056;17.056;2023-08-01T01:51:19;5.25;;;2.17;;
62687;SDS011;48752;51.056;17.056;2023-08-01T01:53:50;4.72;;;1.88;;
62687;SDS011;48752;51.056;17.056;2023-08-01T01:56:15;3.58;;;2.20;;
62687;SDS011;48752;51.056;17.056;2023-08-01T01:58:51;2.85;;;1.90;;
62687;SDS011;48752;51.056;17.056;2023-08-01T02:01:18;3.33;;;1.92;;
62687;SDS011;48752;51.056;17.056;2023-08-01T02:03:43;4.63;;;1.80;;
62687;SDS011;48752;51.056;17.056;2023-08-01T02:06:10;6.57;;;2.97;;
62687;SDS011;48752;51.056;17.056;2023-08-01T02:08:36;21.15;;;2.58;;
62687;SDS011;48752;51.056;17.056;2023-08-01T02:11:03;2.72;;;2.00;;
62687;SDS011;48752;51.056;17.056;2023-08-01T02:13:29;5.68;;;2.22;;
62687;SDS011;48752;51.056;17.056;2023-08-01T02:15:56;7.10;;;2.13;;
62687;SDS011;48752;51.056;17.056;2023-08-01T02:18:21;3.53;;;1.90;;
62687;SDS011;48752;51.056;17.056;2023-08-01T02:20:46;3.63;;;2.10;;
62687;SDS011;48752;51.056;17.056;2023-08-01T02:23:13;9.68;;;2.63;;
62687;SDS011;48752;51.056;17.056;2023-08-01T02:25:39;4.28;;;1.90;;
62687;SDS011;48752;51.056;17.056;2023-08-01T02:28:08;6.25;;;2.42;;
62687;SDS011;48752;51.056;17.056;2023-08-01T02:30:35;7.78;;;2.00;;
62687;SDS011;48752;51.056;17.056;2023-08-01T02:33:01;4.30;;;1.85;;
62687;SDS011;48752;51.056;17.056;2023-08-01T02:35:28;2.72;;;1.67;;
62687;SDS011;48752;51.056;17.056;2023-08-01T02:37:55;2.95;;;2.00;;
62687;SDS011;48752;51.056;17.056;2023-08-01T02:40:22;5.90;;;2.25;;
62687;SDS011;48752;51.056;17.056;2023-08-01T02:42:47;2.92;;;2.17;;
62687;SDS011;48752;51.056;17.056;2023-08-01T02:45:14;2.67;;;1.67;;
62687;SDS011;48752;51.056;17.056;2023-08-01T02:47:40;5.15;;;2.20;;
62687;SDS011;48752;51.056;17.056;2023-08-01T02:50:11;2.83;;;1.90;;
62687;SDS011;48752;51.056;17.056;2023-08-01T02:52:36;3.58;;;2.05;;
62687;SDS011;48752;51.056;17.056;2023-08-01T02:55:03;3.42;;;1.90;;
62687;SDS011;48752;51.056;17.056;2023-08-01T02:57:31;3.78;;;1.83;;
62687;SDS011;48752;51.056;17.056;2023-08-01T02:59:58;3.45;;;2.10;;
62687;SDS011;48752;51.056;17.056;2023-08-01T03:02:24;2.83;;;1.95;;
62687;SDS011;48752;51.056;17.056;2023-08-01T03:04:51;3.60;;;2.00;;
62687;SDS011;48752;51.056;17.056;2023-08-01T03:07:17;5.10;;;2.05;;
62687;SDS011;48752;51.056;17.056;2023-08-01T03:09:44;4.70;;;2.10;;
62687;SDS011;48752;51.056;17.056;2023-08-01T03:12:09;3.38;;;1.85;;
62687;SDS011;48752;51.056;17.056;2023-08-01T03:14:34;3.72;;;2.10;;
62687;SDS011;48752;51.056;17.056;2023-08-01T03:17:00;2.33;;;1.75;;
62687;SDS011;48752;51.056;17.056;2023-08-01T03:19:26;4.07;;;2.10;;
62687;SDS011;48752;51.056;17.056;2023-08-01T03:21:52;5.10;;;2.03;;
62687;SDS011;48752;51.056;17.056;2023-08-01T03:24:18;4.93;;;1.88;;
62687;SDS011;48752;51.056;17.056;2023-08-01T03:26:44;4.45;;;2.40;;
62687;SDS011;48752;51.056;17.056;2023-08-01T03:29:10;7.13;;;2.40;;
62687;SDS011;48752;51.056;17.056;2023-08-01T03:31:36;6.22;;;2.33;;
62687;SDS011;48752;51.056;17.056;2023-08-01T03:34:10;5.28;;;1.85;;
62687;SDS011;48752;51.056;17.056;2023-08-01T03:36:37;3.58;;;1.90;;
62687;SDS011;48752;51.056;17.056;2023-08-01T03:39:03;7.10;;;2.30;;
62687;SDS011;48752;51.056;17.056;2023-08-01T03:41:29;4.07;;;2.50;;
62687;SDS011;48752;51.056;17.056;2023-08-01T03:43:56;3.40;;;2.45;;
62687;SDS011;48752;51.056;17.056;2023-08-01T03:46:22;2.67;;;2.15;;
62687;SDS011;48752;51.056;17.056;2023-08-01T03:48:48;4.05;;;2.10;;
62687;SDS011;48752;51.056;17.056;2023-08-01T03:51:21;4.25;;;2.35;;
62687;SDS011;48752;51.056;17.056;2023-08-01T03:53:46;5.53;;;2.10;;
62687;SDS011;48752;51.056;17.056;2023-08-01T03:56:13;5.70;;;2.28;;
62687;SDS011;48752;51.056;17.056;2023-08-01T03:58:40;5.00;;;2.40;;
62687;SDS011;48752;51.056;17.056;2023-08-01T04:01:05;6.47;;;2.58;;
62687;SDS011;48752;51.056;17.056;2023-08-01T04:03:34;4.72;;;3.20;;
62687;SDS011;48752;51.056;17.056;2023-08-01T04:06:00;5.80;;;2.03;;
62687;SDS011;48752;51.056;17.056;2023-08-01T04:08:26;6.78;;;2.30;;
62687;SDS011;48752;51.056;17.056;2023-08-01T04:10:54;3.47;;;2.00;;
62687;SDS011;48752;51.056;17.056;2023-08-01T04:13:20;4.40;;;2.65;;
62687;SDS011;48752;51.056;17.056;2023-08-01T04:15:47;3.10;;;2.47;;
62687;SDS011;48752;51.056;17.056;2023-08-01T04:18:14;5.38;;;2.35;;
62687;SDS011;48752;51.056;17.056;2023-08-01T04:20:40;4.70;;;2.70;;
62687;SDS011;48752;51.056;17.056;2023-08-01T04:23:05;5.85;;;2.85;;
62687;SDS011;48752;51.056;17.056;2023-08-01T04:25:31;5.05;;;2.30;;
62687;SDS011;48752;51.056;17.056;2023-08-01T04:27:57;3.83;;;3.10;;
62687;SDS011;48752;51.056;17.056;2023-08-01T04:30:23;5.35;;;3.20;;
62687;SDS011;48752;51.056;17.056;2023-08-01T04:32:49;8.88;;;3.00;;
62687;SDS011;48752;51.056;17.056;2023-08-01T04:35:15;6.72;;;3.08;;
62687;SDS011;48752;51.056;17.056;2023-08-01T04:37:42;5.03;;;3.20;;
62687;SDS011;48752;51.056;17.056;2023-08-01T04:40:07;4.18;;;3.10;;
62687;SDS011;48752;51.056;17.056;2023-08-01T04:42:33;7.00;;;2.85;;
62687;SDS011;48752;51.056;17.056;2023-08-01T04:44:58;3.95;;;3.00;;
62687;SDS011;48752;51.056;17.056;2023-08-01T04:47:26;6.53;;;3.10;;
62687;SDS011;48752;51.056;17.056;2023-08-01T04:50:01;5.25;;;2.78;;
62687;SDS011;48752;51.056;17.056;2023-08-01T04:52:26;4.18;;;3.30;;
62687;SDS011;48752;51.056;17.056;2023-08-01T04:54:53;5.95;;;2.88;;
62687;SDS011;48752;51.056;17.056;2023-08-01T04:57:19;5.53;;;3.20;;
62687;SDS011;48752;51.056;17.056;2023-08-01T04:59:45;5.50;;;3.08;;
62687;SDS011;48752;51.056;17.056;2023-08-01T05:02:12;7.93;;;3.53;;
62687;SDS011;48752;51.056;17.056;2023-08-01T05:04:38;9.38;;;3.47;;
62687;SDS011;48752;51.056;17.056;2023-08-01T05:07:04;6.70;;;3.42;;
62687;SDS011;48752;51.056;17.056;2023-08-01T05:09:33;5.40;;;3.67;;
62687;SDS011;48752;51.056;17.056;2023-08-01T05:11:59;4.53;;;2.78;;
62687;SDS011;48752;51.056;17.056;2023-08-01T05:14:26;5.22;;;3.10;;
62687;SDS011;48752;51.056;17.056;2023-08-01T05:16:52;7.95;;;3.33;;
62687;SDS011;48752;51.056;17.056;2023-08-01T05:19:19;6.95;;;3.58;;
62687;SDS011;48752;51.056;17.056;2023-08-01T05:21:45;7.78;;;3.38;;
62687;SDS011;48752;51.056;17.056;2023-08-01T05:24:12;11.18;;;3.03;;
62687;SDS011;48752;51.056;17.056;2023-08-01T05:26:37;4.95;;;3.03;;
62687;SDS011;48752;51.056;17.056;2023-08-01T05:29:04;8.40;;;3.92;;
62687;SDS011;48752;51.056;17.056;2023-08-01T05:31:29;4.03;;;2.88;;
62687;SDS011;48752;51.056;17.056;2023-08-01T05:33:54;4.93;;;3.42;;
62687;SDS011;48752;51.056;17.056;2023-08-01T05:36:22;6.93;;;3.42;;
62687;SDS011;48752;51.056;17.056;2023-08-01T05:38:48;5.68;;;3.45;;
62687;SDS011;48752;51.056;17.056;2023-08-01T05:41:14;6.72;;;4.22;;
62687;SDS011;48752;51.056;17.056;2023-08-01T05:43:41;9.65;;;4.30;;
62687;SDS011;48752;51.056;17.056;2023-08-01T05:46:07;10.20;;;4.03;;
62687;SDS011;48752;51.056;17.056;2023-08-01T05:48:32;7.40;;;3.88;;
62687;SDS011;48752;51.056;17.056;2023-08-01T05:50:58;6.05;;;3.30;;
62687;SDS011;48752;51.056;17.056;2023-08-01T05:53:23;4.82;;;3.58;;
62687;SDS011;48752;51.056;17.056;2023-08-01T05:55:49;6.72;;;4.00;;
62687;SDS011;48752;51.056;17.056;2023-08-01T05:58:16;10.23;;;3.95;;
62687;SDS011;48752;51.056;17.056;2023-08-01T06:00:47;6.10;;;3.33;;
62687;SDS011;48752;51.056;17.056;2023-08-01T06:05:38;7.80;;;4.43;;
62687;SDS011;48752;51.056;17.056;2023-08-01T06:08:05;13.93;;;4.40;;
62687;SDS011;48752;51.056;17.056;2023-08-01T06:10:32;7.22;;;3.83;;
62687;SDS011;48752;51.056;17.056;2023-08-01T06:13:03;7.13;;;3.65;;
62687;SDS011;48752;51.056;17.056;2023-08-01T06:15:29;6.97;;;4.03;;
62687;SDS011;48752;51.056;17.056;2023-08-01T06:17:55;8.52;;;3.25;;
62687;SDS011;48752;51.056;17.056;2023-08-01T06:20:23;10.13;;;4.65;;
62687;SDS011;48752;51.056;17.056;2023-08-01T06:22:49;4.93;;;3.45;;
62687;SDS011;48752;51.056;17.056;2023-08-01T06:25:16;9.13;;;3.88;;
62687;SDS011;48752;51.056;17.056;2023-08-01T06:27:44;6.72;;;3.40;;
62687;SDS011;48752;51.056;17.056;2023-08-01T06:30:11;8.15;;;3.55;;
62687;SDS011;48752;51.056;17.056;2023-08-01T06:32:38;6.18;;;3.80;;
62687;SDS011;48752;51.056;17.056;2023-08-01T06:35:16;9.25;;;3.70;;
62687;SDS011;48752;51.056;17.056;2023-08-01T06:37:48;8.88;;;3.85;;
62687;SDS011;48752;51.056;17.056;2023-08-01T06:40:15;6.82;;;3.17;;
62687;SDS011;48752;51.056;17.056;2023-08-01T06:42:42;7.00;;;3.97;;
62687;SDS011;48752;51.056;17.056;2023-08-01T06:45:08;12.68;;;4.45;;
62687;SDS011;48752;51.056;17.056;2023-08-01T06:47:34;6.10;;;3.40;;
62687;SDS011;48752;51.056;17.056;2023-08-01T06:50:01;7.25;;;3.70;;
62687;SDS011;48752;51.056;17.056;2023-08-01T06:52:28;6.30;;;3.60;;
62687;SDS011;48752;51.056;17.056;2023-08-01T06:54:55;10.00;;;3.67;;
62687;SDS011;48752;51.056;17.056;2023-08-01T06:57:21;8.48;;;3.97;;
62687;SDS011;48752;51.056;17.056;2023-08-01T06:59:56;7.95;;;4.35;;
62687;SDS011;48752;51.056;17.056;2023-08-01T07:02:21;16.02;;;4.97;;
62687;SDS011;48752;51.056;17.056;2023-08-01T07:04:50;5.80;;;3.90;;
62687;SDS011;48752;51.056;17.056;2023-08-01T07:07:20;8.80;;;4.20;;
62687;SDS011;48752;51.056;17.056;2023-08-01T07:09:53;10.32;;;4.22;;
62687;SDS011;48752;51.056;17.056;2023-08-01T07:12:20;6.82;;;3.80;;
62687;SDS011;48752;51.056;17.056;2023-08-01T07:14:47;6.30;;;3.33;;
62687;SDS011;48752;51.056;17.056;2023-08-01T07:17:20;6.75;;;3.88;;
62687;SDS011;48752;51.056;17.056;2023-08-01T07:19:45;5.32;;;3.38;;
62687;SDS011;48752;51.056;17.056;2023-08-01T07:22:13;6.97;;;3.55;;
62687;SDS011;48752;51.056;17.056;2023-08-01T07:24:38;6.47;;;3.42;;
62687;SDS011;48752;51.056;17.056;2023-08-01T07:27:04;9.43;;;3.92;;
62687;SDS011;48752;51.056;17.056;2023-08-01T07:29:33;5.75;;;3.45;;
62687;SDS011;48752;51.056;17.056;2023-08-01T07:31:58;5.22;;;3.92;;
62687;SDS011;48752;51.056;17.056;2023-08-01T07:34:26;7.28;;;3.47;;
62687;SDS011;48752;51.056;17.056;2023-08-01T07:36:51;6.20;;;3.28;;
62687;SDS011;48752;51.056;17.056;2023-08-01T07:39:17;8.32;;;3.88;;
62687;SDS011;48752;51.056;17.056;2023-08-01T07:41:59;14.65;;;4.78;;
62687;SDS011;48752;51.056;17.056;2023-08-01T07:44:24;10.88;;;3.45;;
62687;SDS011;48752;51.056;17.056;2023-08-01T07:46:56;6.70;;;4.05;;
62687;SDS011;48752;51.056;17.056;2023-08-01T07:49:22;7.15;;;3.28;;
62687;SDS011;48752;51.056;17.056;2023-08-01T07:51:47;11.70;;;4.13;;
62687;SDS011;48752;51.056;17.056;2023-08-01T07:54:13;5.30;;;3.17;;
62687;SDS011;48752;51.056;17.056;2023-08-01T07:56:38;6.35;;;3.05;;
62687;SDS011;48752;51.056;17.056;2023-08-01T07:59:04;4.10;;;3.10;;
62687;SDS011;48752;51.056;17.056;2023-08-01T08:01:31;6.32;;;3.15;;
62687;SDS011;48752;51.056;17.056;2023-08-01T08:03:58;6.43;;;3.17;;
62687;SDS011;48752;51.056;17.056;2023-08-01T08:06:25;5.90;;;3.08;;
62687;SDS011;48752;51.056;17.056;2023-08-01T08:08:51;6.10;;;3.08;;
62687;SDS011;48752;51.056;17.056;2023-08-01T08:11:18;6.03;;;3.35;;
62687;SDS011;48752;51.056;17.056;2023-08-01T08:13:45;5.35;;;3.30;;
62687;SDS011;48752;51.056;17.056;2023-08-01T08:16:12;9.68;;;3.20;;
62687;SDS011;48752;51.056;17.056;2023-08-01T08:18:37;7.57;;;3.10;;
62687;SDS011;48752;51.056;17.056;2023-08-01T08:21:04;5.88;;;3.63;;
62687;SDS011;48752;51.056;17.056;2023-08-01T08:23:37;8.48;;;3.33;;
62687;SDS011;48752;51.056;17.056;2023-08-01T08:26:03;5.63;;;3.17;;
62687;SDS011;48752;51.056;17.056;2023-08-01T08:28:31;8.13;;;3.85;;
62687;SDS011;48752;51.056;17.056;2023-08-01T08:30:58;8.35;;;3.80;;
62687;SDS011;48752;51.056;17.056;2023-08-01T08:33:24;4.40;;;3.22;;
62687;SDS011;48752;51.056;17.056;2023-08-01T08:35:51;6.07;;;3.38;;
62687;SDS011;48752;51.056;17.056;2023-08-01T08:38:18;7.97;;;4.18;;
62687;SDS011;48752;51.056;17.056;2023-08-01T08:41:02;8.82;;;3.28;;
62687;SDS011;48752;51.056;17.056;2023-08-01T08:43:34;6.30;;;3.72;;
62687;SDS011;48752;51.056;17.056;2023-08-01T08:46:02;9.20;;;4.03;;
62687;SDS011;48752;51.056;17.056;2023-08-01T08:48:29;7.97;;;3.85;;
62687;SDS011;48752;51.056;17.056;2023-08-01T08:50:59;7.30;;;3.10;;
62687;SDS011;48752;51.056;17.056;2023-08-01T08:53:26;4.65;;;3.20;;
62687;SDS011;48752;51.056;17.056;2023-08-01T08:55:52;5.43;;;3.15;;
62687;SDS011;48752;51.056;17.056;2023-08-01T08:58:18;4.00;;;2.92;;
62687;SDS011;48752;51.056;17.056;2023-08-01T09:00:46;5.38;;;3.30;;
62687;SDS011;48752;51.056;17.056;2023-08-01T09:03:13;5.50;;;3.53;;
62687;SDS011;48752;51.056;17.056;2023-08-01T09:05:50;4.68;;;2.95;;
62687;SDS011;48752;51.056;17.056;2023-08-01T09:08:21;5.32;;;3.50;;
62687;SDS011;48752;51.056;17.056;2023-08-01T09:10:48;7.88;;;3.08;;
62687;SDS011;48752;51.056;17.056;2023-08-01T09:13:13;6.55;;;3.05;;
62687;SDS011;48752;51.056;17.056;2023-08-01T09:15:42;7.93;;;3.15;;
62687;SDS011;48752;51.056;17.056;2023-08-01T09:18:09;5.38;;;3.67;;
62687;SDS011;48752;51.056;17.056;2023-08-01T09:20:48;6.38;;;2.50;;
62687;SDS011;48752;51.056;17.056;2023-08-01T09:23:14;8.57;;;3.13;;
62687;SDS011;48752;51.056;17.056;2023-08-01T09:25:43;4.22;;;3.13;;
62687;SDS011;48752;51.056;17.056;2023-08-01T09:28:20;4.20;;;2.50;;
62687;SDS011;48752;51.056;17.056;2023-08-01T09:30:53;4.82;;;2.55;;
62687;SDS011;48752;51.056;17.056;2023-08-01T09:33:20;6.10;;;3.05;;
62687;SDS011;48752;51.056;17.056;2023-08-01T09:35:51;8.20;;;3.30;;
62687;SDS011;48752;51.056;17.056;2023-08-01T09:38:16;5.18;;;3.33;;
62687;SDS011;48752;51.056;17.056;2023-08-01T09:40:44;3.72;;;2.83;;
62687;SDS011;48752;51.056;17.056;2023-08-01T09:43:12;5.85;;;3.35;;
62687;SDS011;48752;51.056;17.056;2023-08-01T09:46:00;5.38;;;3.05;;
62687;SDS011;48752;51.056;17.056;2023-08-01T09:48:26;6.15;;;3.20;;
62687;SDS011;48752;51.056;17.056;2023-08-01T09:51:14;4.30;;;3.20;;
62687;SDS011;48752;51.056;17.056;2023-08-01T09:53:49;6.07;;;3.25;;
62687;SDS011;48752;51.056;17.056;2023-08-01T09:56:22;3.92;;;2.28;;
62687;SDS011;48752;51.056;17.056;2023-08-01T09:58:50;4.65;;;2.92;;
62687;SDS011;48752;51.056;17.056;2023-08-01T10:01:24;6.18;;;2.70;;
62687;SDS011;48752;51.056;17.056;2023-08-01T10:03:51;11.18;;;3.05;;
62687;SDS011;48752;51.056;17.056;2023-08-01T10:06:32;4.03;;;2.63;;
62687;SDS011;48752;51.056;17.056;2023-08-01T10:08:58;4.45;;;2.80;;
62687;SDS011;48752;51.056;17.056;2023-08-01T10:11:27;9.40;;;2.90;;
62687;SDS011;48752;51.056;17.056;2023-08-01T10:13:56;6.15;;;2.72;;
62687;SDS011;48752;51.056;17.056;2023-08-01T10:16:22;4.38;;;3.05;;
62687;SDS011;48752;51.056;17.056;2023-08-01T10:18:54;6.80;;;2.67;;
62687;SDS011;48752;51.056;17.056;2023-08-01T10:23:58;4.70;;;2.80;;
62687;SDS011;48752;51.056;17.056;2023-08-01T10:26:24;5.15;;;2.83;;
62687;SDS011;48752;51.056;17.056;2023-08-01T10:28:50;3.65;;;2.08;;
62687;SDS011;48752;51.056;17.056;2023-08-01T10:31:19;4.93;;;2.25;;
62687;SDS011;48752;51.056;17.056;2023-08-01T10:33:50;6.45;;;3.10;;
62687;SDS011;48752;51.056;17.056;2023-08-01T10:36:24;8.20;;;2.55;;
62687;SDS011;48752;51.056;17.056;2023-08-01T10:38:54;4.13;;;2.80;;
62687;SDS011;48752;51.056;17.056;2023-08-01T10:41:21;5.38;;;2.67;;
62687;SDS011;48752;51.056;17.056;2023-08-01T10:43:50;5.93;;;3.03;;
62687;SDS011;48752;51.056;17.056;2023-08-01T10:46:17;6.03;;;2.45;;
62687;SDS011;48752;51.056;17.056;2023-08-01T10:48:52;6.03;;;2.47;;
62687;SDS011;48752;51.056;17.056;2023-08-01T10:51:19;4.63;;;2.85;;
62687;SDS011;48752;51.056;17.056;2023-08-01T10:53:47;5.40;;;2.72;;
62687;SDS011;48752;51.056;17.056;2023-08-01T10:56:16;4.93;;;2.67;;
62687;SDS011;48752;51.056;17.056;2023-08-01T10:58:44;4.35;;;3.03;;
62687;SDS011;48752;51.056;17.056;2023-08-01T11:01:10;5.32;;;2.50;;
62687;SDS011;48752;51.056;17.056;2023-08-01T11:03:37;5.05;;;2.85;;
62687;SDS011;48752;51.056;17.056;2023-08-01T11:06:03;5.38;;;3.03;;
62687;SDS011;48752;51.056;17.056;2023-08-01T11:08:37;6.20;;;2.45;;
62687;SDS011;48752;51.056;17.056;2023-08-01T11:11:24;3.45;;;2.35;;
62687;SDS011;48752;51.056;17.056;2023-08-01T11:13:52;4.60;;;2.50;;
62687;SDS011;48752;51.056;17.056;2023-08-01T11:16:21;3.80;;;2.55;;
62687;SDS011;48752;51.056;17.056;2023-08-01T11:18:48;3.72;;;1.92;;
62687;SDS011;48752;51.056;17.056;2023-08-01T11:21:24;4.60;;;2.83;;
62687;SDS011;48752;51.056;17.056;2023-08-01T11:23:51;2.97;;;1.95;;
62687;SDS011;48752;51.056;17.056;2023-08-01T11:26:16;5.97;;;2.10;;
62687;SDS011;48752;51.056;17.056;2023-08-01T11:28:43;4.72;;;2.40;;
62687;SDS011;48752;51.056;17.056;2023-08-01T11:31:11;4.28;;;2.35;;
62687;SDS011;48752;51.056;17.056;2023-08-01T11:33:41;3.50;;;2.00;;
62687;SDS011;48752;51.056;17.056;2023-08-01T11:36:07;5.82;;;2.30;;
62687;SDS011;48752;51.056;17.056;2023-08-01T11:38:35;6.53;;;2.03;;
62687;SDS011;48752;51.056;17.056;2023-08-01T11:41:03;2.65;;;2.28;;
62687;SDS011;48752;51.056;17.056;2023-08-01T11:43:42;4.95;;;2.38;;
62687;SDS011;48752;51.056;17.056;2023-08-01T11:46:09;5.40;;;1.98;;
62687;SDS011;48752;51.056;17.056;2023-08-01T11:48:35;4.53;;;2.33;;
62687;SDS011;48752;51.056;17.056;2023-08-01T11:51:02;4.13;;;2.15;;
62687;SDS011;48752;51.056;17.056;2023-08-01T11:53:31;2.45;;;1.95;;
62687;SDS011;48752;51.056;17.056;2023-08-01T11:56:07;4.97;;;2.22;;
62687;SDS011;48752;51.056;17.056;2023-08-01T11:58:33;2.78;;;2.10;;
62687;SDS011;48752;51.056;17.056;2023-08-01T12:01:05;2.95;;;1.88;;
62687;SDS011;48752;51.056;17.056;2023-08-01T12:03:31;2.88;;;1.50;;
62687;SDS011;48752;51.056;17.056;2023-08-01T12:06:07;6.55;;;1.90;;
62687;SDS011;48752;51.056;17.056;2023-08-01T12:08:34;2.95;;;1.80;;
62687;SDS011;48752;51.056;17.056;2023-08-01T12:11:00;1.90;;;1.52;;
62687;SDS011;48752;51.056;17.056;2023-08-01T12:13:26;3.28;;;2.17;;
62687;SDS011;48752;51.056;17.056;2023-08-01T12:15:54;2.45;;;1.80;;
62687;SDS011;48752;51.056;17.056;2023-08-01T12:18:25;4.75;;;1.92;;
62687;SDS011;48752;51.056;17.056;2023-08-01T12:20:53;3.22;;;2.00;;
62687;SDS011;48752;51.056;17.056;2023-08-01T12:23:21;2.38;;;1.80;;
62687;SDS011;48752;51.056;17.056;2023-08-01T12:25:53;2.80;;;1.67;;
62687;SDS011;48752;51.056;17.056;2023-08-01T12:28:19;4.13;;;1.92;;
62687;SDS011;48752;51.056;17.056;2023-08-01T12:30:46;3.58;;;1.95;;
62687;SDS011;48752;51.056;17.056;2023-08-01T12:33:15;2.22;;;1.95;;
62687;SDS011;48752;51.056;17.056;2023-08-01T12:35:41;1.98;;;1.60;;
62687;SDS011;48752;51.056;17.056;2023-08-01T12:38:09;2.17;;;1.60;;
62687;SDS011;48752;51.056;17.056;2023-08-01T12:40:34;3.38;;;2.05;;
62687;SDS011;48752;51.056;17.056;2023-08-01T12:43:03;2.90;;;1.75;;
62687;SDS011;48752;51.056;17.056;2023-08-01T12:45:30;2.38;;;2.03;;
62687;SDS011;48752;51.056;17.056;2023-08-01T12:50:43;3.15;;;2.38;;
62687;SDS011;48752;51.056;17.056;2023-08-01T12:53:15;2.47;;;1.52;;
62687;SDS011;48752;51.056;17.056;2023-08-01T12:55:45;1.90;;;1.60;;
62687;SDS011;48752;51.056;17.056;2023-08-01T12:58:12;2.28;;;1.70;;
62687;SDS011;48752;51.056;17.056;2023-08-01T13:00:39;2.63;;;1.25;;
62687;SDS011;48752;51.056;17.056;2023-08-01T13:03:14;4.28;;;1.30;;
62687;SDS011;48752;51.056;17.056;2023-08-01T13:05:40;1.38;;;1.25;;
62687;SDS011;48752;51.056;17.056;2023-08-01T13:08:06;3.15;;;1.33;;
62687;SDS011;48752;51.056;17.056;2023-08-01T13:10:38;3.13;;;1.42;;
62687;SDS011;48752;51.056;17.056;2023-08-01T13:13:05;2.53;;;1.60;;
62687;SDS011;48752;51.056;17.056;2023-08-01T13:15:31;3.75;;;1.65;;
62687;SDS011;48752;51.056;17.056;2023-08-01T13:17:57;1.85;;;1.50;;
62687;SDS011;48752;51.056;17.056;2023-08-01T13:20:23;2.33;;;1.63;;
62687;SDS011;48752;51.056;17.056;2023-08-01T13:22:50;1.83;;;1.40;;
62687;SDS011;48752;51.056;17.056;2023-08-01T13:25:35;2.15;;;1.67;;
62687;SDS011;48752;51.056;17.056;2023-08-01T13:28:02;2.25;;;1.77;;
62687;SDS011;48752;51.056;17.056;2023-08-01T13:30:29;4.88;;;1.67;;
62687;SDS011;48752;51.056;17.056;2023-08-01T13:32:55;3.13;;;1.63;;
62687;SDS011;48752;51.056;17.056;2023-08-01T13:35:21;1.55;;;1.30;;
62687;SDS011;48752;51.056;17.056;2023-08-01T13:37:48;1.67;;;1.50;;
62687;SDS011;48752;51.056;17.056;2023-08-01T13:40:14;2.33;;;1.25;;
62687;SDS011;48752;51.056;17.056;2023-08-01T13:42:40;1.73;;;1.55;;
62687;SDS011;48752;51.056;17.056;2023-08-01T13:45:06;2.58;;;1.48;;
62687;SDS011;48752;51.056;17.056;2023-08-01T13:47:33;3.33;;;1.38;;
62687;SDS011;48752;51.056;17.056;2023-08-01T13:50:02;2.22;;;1.38;;
62687;SDS011;48752;51.056;17.056;2023-08-01T13:52:27;2.80;;;1.40;;
62687;SDS011;48752;51.056;17.056;2023-08-01T13:54:55;4.15;;;1.67;;
62687;SDS011;48752;51.056;17.056;2023-08-01T13:57:22;2.50;;;1.63;;
62687;SDS011;48752;51.056;17.056;2023-08-01T13:59:52;2.03;;;1.48;;
62687;SDS011;48752;51.056;17.056;2023-08-01T14:02:18;3.05;;;1.52;;
62687;SDS011;48752;51.056;17.056;2023-08-01T14:04:54;3.28;;;1.80;;
62687;SDS011;48752;51.056;17.056;2023-08-01T14:07:38;1.67;;;1.25;;
62687;SDS011;48752;51.056;17.056;2023-08-01T14:10:04;2.35;;;1.85;;
62687;SDS011;48752;51.056;17.056;2023-08-01T14:12:30;3.78;;;1.73;;
62687;SDS011;48752;51.056;17.056;2023-08-01T14:14:55;4.47;;;1.50;;
62687;SDS011;48752;51.056;17.056;2023-08-01T14:17:20;1.95;;;1.50;;
62687;SDS011;48752;51.056;17.056;2023-08-01T14:19:46;2.30;;;1.50;;
62687;SDS011;48752;51.056;17.056;2023-08-01T14:22:11;2.10;;;1.48;;
62687;SDS011;48752;51.056;17.056;2023-08-01T14:24:37;3.08;;;1.30;;
62687;SDS011;48752;51.056;17.056;2023-08-01T14:27:02;2.47;;;1.77;;
62687;SDS011;48752;51.056;17.056;2023-08-01T14:29:28;2.95;;;1.50;;
62687;SDS011;48752;51.056;17.056;2023-08-01T14:31:54;1.92;;;1.55;;
62687;SDS011;48752;51.056;17.056;2023-08-01T14:34:19;4.18;;;1.35;;
62687;SDS011;48752;51.056;17.056;2023-08-01T14:36:45;1.40;;;1.10;;
62687;SDS011;48752;51.056;17.056;2023-08-01T14:39:10;7.13;;;1.77;;
62687;SDS011;48752;51.056;17.056;2023-08-01T14:41:35;4.50;;;1.60;;
62687;SDS011;48752;51.056;17.056;2023-08-01T14:44:01;2.00;;;1.40;;